Time;durP1;ratioP1;P1;durP2;ratioP2;P2;SDS_P1;SDS_P2;PMS_P1;PMS_P2;Temp;Humidity;BMP_temperature;BMP_pressure;BME280_temperature;BME280_humidity;BME280_pressure;Samples;Min_cycle;Max_cycle;Signal;HPM_P1;HPM_P2
2022/08/26 00:02:03;;;;;;;6.90;2.03;;;10.60;99.90;;;;;;5078925;28;20507;-74
2022/08/26 00:04:29;;;;;;;5.90;1.80;;;10.50;99.90;;;;;;5083848;28;20262;-75
2022/08/26 00:06:55;;;;;;;6.70;1.33;;;10.50;99.90;;;;;;5078605;28;20404;-72
2022/08/26 00:09:22;;;;;;;3.13;1.20;;;10.50;99.90;;;;;;5082440;28;20489;-71
2022/08/26 00:11:48;;;;;;;6.50;1.47;;;10.80;99.90;;;;;;5080372;28;20190;-73
2022/08/26 00:14:15;;;;;;;3.83;1.73;;;9.80;99.90;;;;;;5079823;28;20183;-73
2022/08/26 00:16:41;;;;;;;3.10;1.43;;;9.30;99.90;;;;;;5083724;28;20179;-74
2022/08/26 00:19:07;;;;;;;3.70;1.47;;;9.40;99.90;;;;;;5079558;28;20533;-72
2022/08/26 00:21:34;;;;;;;4.50;0.90;;;9.60;99.90;;;;;;5078850;28;20206;-74
2022/08/26 00:23:59;;;;;;;8.97;2.30;;;8.80;99.90;;;;;;5078656;28;20191;-75
2022/08/26 00:26:25;;;;;;;5.40;1.00;;;8.90;99.90;;;;;;5093334;28;20209;-74
2022/08/26 00:28:51;;;;;;;1.30;1.13;;;8.90;99.90;;;;;;5077851;28;20186;-72
2022/08/26 00:31:17;;;;;;;3.07;1.23;;;9.40;99.90;;;;;;5083178;28;20202;-73
2022/08/26 00:33:42;;;;;;;1.90;1.00;;;8.60;99.90;;;;;;5079588;28;20171;-74
2022/08/26 00:36:08;;;;;;;2.80;1.00;;;8.80;99.90;;;;;;5084595;28;20190;-71
2022/08/26 00:38:35;;;;;;;3.50;0.80;;;8.30;99.90;;;;;;5079276;28;20211;-75
2022/08/26 00:41:01;;;;;;;1.37;1.00;;;8.80;99.90;;;;;;5082725;28;20179;-74
2022/08/26 00:43:32;;;;;;;4.43;1.67;;;7.70;99.90;;;;;;5078717;28;20248;-73
2022/08/26 00:46:09;;;;;;;1.50;0.90;;;7.30;99.90;;;;;;5083556;28;20202;-74
2022/08/26 00:48:37;;;;;;;3.00;1.00;;;6.90;99.90;;;;;;5078532;28;20367;-74
2022/08/26 00:51:16;;;;;;;1.90;0.83;;;-7.70;99.90;;;;;;5085017;28;20235;-74
2022/08/26 00:53:49;;;;;;;5.60;1.10;;;-6.80;99.90;;;;;;5079120;28;20179;-75
2022/08/26 00:56:54;;;;;;;1.73;1.10;;;-5.90;99.90;;;;;;5078955;28;20176;-72
2022/08/26 00:59:21;;;;;;;1.03;1.00;;;-5.70;99.90;;;;;;5077889;28;20238;-73
2022/08/26 01:01:47;;;;;;;4.30;1.17;;;-4.60;99.90;;;;;;5079157;28;20186;-71
2022/08/26 01:04:16;;;;;;;3.90;1.37;;;6.20;99.90;;;;;;5081469;28;20182;-68
2022/08/26 01:06:42;;;;;;;2.23;0.90;;;9.00;99.90;;;;;;5077652;28;20199;-69
2022/08/26 01:09:08;;;;;;;2.63;0.93;;;8.70;99.90;;;;;;5078410;28;20282;-71
2022/08/26 01:11:35;;;;;;;1.47;0.80;;;8.50;99.90;;;;;;5077981;28;20258;-70
2022/08/26 01:14:03;;;;;;;2.80;0.90;;;9.90;99.90;;;;;;5077867;28;20222;-74
2022/08/26 01:16:29;;;;;;;3.90;1.37;;;9.50;99.90;;;;;;5079235;28;20187;-74
2022/08/26 01:19:00;;;;;;;5.00;1.57;;;9.60;99.90;;;;;;5077830;28;20180;-70
2022/08/26 01:21:47;;;;;;;3.30;1.40;;;8.30;99.90;;;;;;5077826;28;20206;-70
2022/08/26 01:24:13;;;;;;;4.17;1.93;;;10.70;99.90;;;;;;5078004;28;20187;-73
2022/08/26 01:26:41;;;;;;;3.07;1.07;;;12.00;99.90;;;;;;5077385;28;20203;-74
2022/08/26 01:29:14;;;;;;;2.07;1.10;;;12.90;99.90;;;;;;5083812;28;20264;-73
2022/08/26 01:31:45;;;;;;;6.47;1.60;;;12.10;99.90;;;;;;5084499;28;20198;-73
2022/08/26 01:34:21;;;;;;;6.17;1.20;;;12.30;99.90;;;;;;5078126;28;20171;-75
2022/08/26 01:36:50;;;;;;;4.27;1.30;;;12.00;99.90;;;;;;5077719;28;20559;-72
2022/08/26 01:39:17;;;;;;;1.77;1.00;;;13.00;99.90;;;;;;5076974;28;20183;-73
2022/08/26 01:41:44;;;;;;;3.70;1.40;;;13.50;99.90;;;;;;5086077;28;20179;-74
2022/08/26 01:44:15;;;;;;;2.70;1.50;;;13.50;99.90;;;;;;5077569;28;20218;-71
2022/08/26 01:46:43;;;;;;;2.53;1.13;;;13.10;99.90;;;;;;5074850;28;20211;-74
2022/08/26 01:49:10;;;;;;;4.57;1.20;;;13.20;99.90;;;;;;5078719;28;20948;-73
2022/08/26 01:51:38;;;;;;;8.90;2.27;;;12.90;99.90;;;;;;5082935;28;20233;-73
2022/08/26 01:54:06;;;;;;;5.07;1.40;;;12.60;99.90;;;;;;5077641;28;20525;-73
2022/08/26 01:56:32;;;;;;;15.77;2.10;;;13.10;99.90;;;;;;5077127;28;20180;-73
2022/08/26 01:59:01;;;;;;;4.50;2.20;;;13.40;99.90;;;;;;5077199;28;20249;-72
2022/08/26 02:01:27;;;;;;;2.40;1.30;;;13.50;99.90;;;;;;5077388;28;20209;-73
2022/08/26 02:04:08;;;;;;;2.70;1.33;;;13.30;99.90;;;;;;5077243;28;20192;-71
2022/08/26 02:06:37;;;;;;;4.10;1.57;;;13.10;99.90;;;;;;5082385;28;20209;-72
2022/08/26 02:09:04;;;;;;;2.13;1.93;;;13.20;99.90;;;;;;5076765;28;20455;-72
2022/08/26 02:11:31;;;;;;;4.50;1.63;;;13.30;99.90;;;;;;5077597;28;20825;-72
2022/08/26 02:14:02;;;;;;;4.63;1.60;;;12.80;99.90;;;;;;5076969;28;20276;-74
2022/08/26 02:16:33;;;;;;;5.03;1.77;;;13.00;99.90;;;;;;5076065;28;20182;-70
2022/08/26 02:19:00;;;;;;;3.27;1.10;;;12.60;99.90;;;;;;5076903;28;20175;-74
2022/08/26 02:21:26;;;;;;;4.00;1.43;;;13.00;99.90;;;;;;5077322;28;20175;-72
2022/08/26 02:23:52;;;;;;;3.73;1.13;;;12.10;99.90;;;;;;5077208;28;20183;-73
2022/08/26 02:26:22;;;;;;;8.83;1.40;;;12.20;99.90;;;;;;5076723;28;20264;-71
2022/08/26 02:29:13;;;;;;;3.83;1.67;;;11.60;99.90;;;;;;5077007;28;20199;-74
2022/08/26 02:31:39;;;;;;;3.17;1.13;;;11.00;99.90;;;;;;5085051;28;20238;-73
2022/08/26 02:34:15;;;;;;;2.83;1.27;;;11.40;99.90;;;;;;5090961;28;20199;-75
2022/08/26 02:36:41;;;;;;;4.53;1.37;;;12.10;99.90;;;;;;5077109;28;20610;-73
2022/08/26 02:39:08;;;;;;;6.23;1.47;;;12.50;99.90;;;;;;5077056;28;20601;-73
2022/08/26 02:41:34;;;;;;;6.40;1.60;;;12.20;99.90;;;;;;5083503;28;20555;-72
2022/08/26 02:44:00;;;;;;;7.23;2.17;;;12.50;99.90;;;;;;5077125;28;20202;-73
2022/08/26 02:46:26;;;;;;;5.03;2.87;;;11.00;99.90;;;;;;5076693;28;20626;-72
2022/08/26 02:48:52;;;;;;;2.43;1.00;;;9.70;99.90;;;;;;5077206;28;20207;-74
2022/08/26 02:51:17;;;;;;;3.90;1.43;;;10.30;99.90;;;;;;5076821;28;20182;-73
2022/08/26 02:53:43;;;;;;;6.13;1.70;;;10.70;99.90;;;;;;5075987;28;20172;-71
2022/08/26 02:56:09;;;;;;;5.40;2.80;;;10.20;99.90;;;;;;5075941;28;20187;-71
2022/08/26 02:58:35;;;;;;;6.57;2.30;;;11.20;99.90;;;;;;5076046;28;20238;-75
2022/08/26 03:01:02;;;;;;;2.23;1.53;;;8.00;99.90;;;;;;5076311;28;20198;-75
2022/08/26 03:03:28;;;;;;;3.50;1.80;;;8.20;99.90;;;;;;5076317;28;20179;-74
2022/08/26 03:05:53;;;;;;;3.23;1.20;;;9.50;99.90;;;;;;5076828;28;20294;-74
2022/08/26 03:08:21;;;;;;;5.80;1.93;;;9.60;99.90;;;;;;5076295;28;20306;-72
2022/08/26 03:10:46;;;;;;;1.63;1.20;;;10.40;99.90;;;;;;5076308;28;20175;-72
2022/08/26 03:13:13;;;;;;;6.20;1.67;;;9.80;99.90;;;;;;5076287;28;20189;-74
2022/08/26 03:15:39;;;;;;;6.57;1.63;;;7.50;99.90;;;;;;5076090;28;20579;-74
2022/08/26 03:18:05;;;;;;;2.50;2.17;;;6.40;99.90;;;;;;5075695;28;20241;-72
2022/08/26 03:20:32;;;;;;;2.10;1.50;;;9.30;99.90;;;;;;5076647;28;20206;-74
2022/08/26 03:22:58;;;;;;;2.80;1.10;;;9.10;99.90;;;;;;5082918;28;20184;-74
2022/08/26 03:25:24;;;;;;;2.63;1.67;;;9.60;99.90;;;;;;5076058;28;20211;-74
2022/08/26 03:27:52;;;;;;;5.37;1.90;;;10.30;99.90;;;;;;5076537;28;20262;-74
2022/08/26 03:33:03;;;;;;;2.73;1.50;;;9.50;99.90;;;;;;5076893;28;20201;-73
2022/08/26 03:35:30;;;;;;;7.73;1.60;;;9.50;99.90;;;;;;5076487;28;20194;-70
2022/08/26 03:37:56;;;;;;;6.60;1.30;;;8.10;99.90;;;;;;5075524;28;20186;-73
2022/08/26 03:40:22;;;;;;;3.40;1.53;;;8.80;99.90;;;;;;5076337;28;20614;-73
2022/08/26 03:42:48;;;;;;;1.60;1.10;;;8.70;99.90;;;;;;5075173;28;20187;-73
2022/08/26 03:45:15;;;;;;;2.50;0.90;;;8.70;99.90;;;;;;5075349;28;20211;-75
2022/08/26 03:47:41;;;;;;;2.17;1.13;;;11.90;99.90;;;;;;5075865;28;20180;-72
2022/08/26 03:50:09;;;;;;;2.40;1.30;;;12.70;99.90;;;;;;5075220;28;20253;-69
2022/08/26 03:52:35;;;;;;;5.00;1.60;;;11.50;99.90;;;;;;5076587;28;20175;-72
2022/08/26 03:55:03;;;;;;;4.60;1.20;;;12.00;99.90;;;;;;5075854;28;20533;-72
2022/08/26 03:57:29;;;;;;;2.43;1.00;;;12.60;99.90;;;;;;5075178;28;20579;-71
2022/08/26 03:59:54;;;;;;;4.37;1.10;;;13.00;99.90;;;;;;5079423;28;20255;-72
2022/08/26 04:02:20;;;;;;;5.67;1.10;;;12.30;99.90;;;;;;5075196;28;20179;-72
2022/08/26 04:04:46;;;;;;;1.80;1.10;;;13.10;99.90;;;;;;5082793;28;20186;-73
2022/08/26 04:07:11;;;;;;;2.27;0.80;;;11.90;99.90;;;;;;5078893;28;20263;-73
2022/08/26 04:09:37;;;;;;;1.53;1.27;;;13.20;99.90;;;;;;5079584;28;20175;-71
2022/08/26 04:12:04;;;;;;;4.20;1.00;;;12.50;99.90;;;;;;5079079;28;20634;-70
2022/08/26 04:14:31;;;;;;;4.67;0.97;;;12.60;99.90;;;;;;5087141;28;20175;-73
2022/08/26 04:16:57;;;;;;;3.63;1.10;;;12.70;99.90;;;;;;5084719;28;20183;-76
2022/08/26 04:19:24;;;;;;;3.27;1.40;;;12.90;99.90;;;;;;5083049;28;20179;-75
2022/08/26 04:21:51;;;;;;;10.10;2.40;;;13.30;99.90;;;;;;5079709;28;20198;-70
2022/08/26 04:24:19;;;;;;;2.73;1.20;;;12.40;99.90;;;;;;5079229;28;20258;-72
2022/08/26 04:26:45;;;;;;;4.83;1.10;;;12.30;99.90;;;;;;5078435;28;20210;-73
2022/08/26 04:29:14;;;;;;;3.10;2.03;;;11.90;99.90;;;;;;5080164;28;20186;-73
2022/08/26 04:31:40;;;;;;;2.27;0.80;;;11.60;99.90;;;;;;5078957;28;20189;-73
2022/08/26 04:34:06;;;;;;;0.97;0.83;;;11.00;99.90;;;;;;5079901;28;20459;-73
2022/08/26 04:36:33;;;;;;;3.37;1.27;;;11.10;99.90;;;;;;5079510;28;20211;-74
2022/08/26 04:39:01;;;;;;;3.07;1.03;;;12.10;99.90;;;;;;5079836;28;20550;-73
2022/08/26 04:41:28;;;;;;;2.80;1.00;;;12.40;99.90;;;;;;5079074;28;20226;-72
2022/08/26 04:43:54;;;;;;;1.83;1.40;;;11.70;99.90;;;;;;5081188;28;20517;-75
2022/08/26 04:46:23;;;;;;;2.00;1.10;;;12.30;99.90;;;;;;5078070;28;20294;-74
2022/08/26 04:48:51;;;;;;;4.27;0.70;;;12.20;99.90;;;;;;5077884;28;20196;-67
2022/08/26 04:51:19;;;;;;;1.53;1.13;;;12.40;99.90;;;;;;5084725;28;20241;-73
2022/08/26 04:53:45;;;;;;;4.67;2.07;;;12.90;99.90;;;;;;5078028;28;20197;-74
2022/08/26 04:56:12;;;;;;;2.63;1.07;;;13.10;99.90;;;;;;5078743;28;20179;-73
2022/08/26 04:58:38;;;;;;;1.70;1.20;;;13.30;99.90;;;;;;5078625;28;20183;-73
2022/08/26 05:01:04;;;;;;;3.60;1.77;;;12.40;99.90;;;;;;5077856;28;20195;-72
2022/08/26 05:03:30;;;;;;;8.07;1.53;;;11.60;99.90;;;;;;5092989;28;20188;-73
2022/08/26 05:05:57;;;;;;;4.33;1.10;;;11.50;99.90;;;;;;5082836;28;20511;-71
2022/08/26 05:08:23;;;;;;;1.67;1.00;;;12.10;99.90;;;;;;5080363;28;20475;-68
2022/08/26 05:10:55;;;;;;;2.97;2.20;;;12.20;99.90;;;;;;5077214;28;20189;-71
2022/08/26 05:13:23;;;;;;;3.10;1.30;;;12.30;99.90;;;;;;5078421;28;20779;-72
2022/08/26 05:15:50;;;;;;;5.13;1.27;;;12.50;99.90;;;;;;5085692;28;20252;-72
2022/08/26 05:18:20;;;;;;;1.87;1.10;;;12.70;99.90;;;;;;5098180;28;20179;-72
2022/08/26 05:20:48;;;;;;;7.93;1.40;;;12.90;99.90;;;;;;5098788;28;20664;-72
2022/08/26 05:23:16;;;;;;;5.00;1.40;;;12.90;99.90;;;;;;5096997;28;20175;-71
2022/08/26 05:25:44;;;;;;;4.30;1.27;;;13.20;99.90;;;;;;5095745;28;20222;-72
2022/08/26 05:28:12;;;;;;;5.03;1.47;;;13.30;99.90;;;;;;5077503;28;20183;-69
2022/08/26 05:30:38;;;;;;;5.13;1.03;;;13.30;99.90;;;;;;5077339;28;20579;-70
2022/08/26 05:33:05;;;;;;;3.80;2.10;;;13.30;99.90;;;;;;5080532;28;20214;-73
2022/08/26 05:35:33;;;;;;;5.87;2.10;;;12.90;99.90;;;;;;5076123;28;20441;-75
2022/08/26 05:38:08;;;;;;;2.93;1.00;;;11.80;99.90;;;;;;5077513;28;20267;-73
2022/08/26 05:40:36;;;;;;;5.73;1.33;;;11.90;99.90;;;;;;5084321;28;20175;-73
2022/08/26 05:43:09;;;;;;;1.27;0.93;;;12.30;99.90;;;;;;5077809;28;20233;-72
2022/08/26 05:45:37;;;;;;;3.77;1.20;;;12.60;99.90;;;;;;5077123;28;20191;-74
2022/08/26 05:48:06;;;;;;;3.00;1.20;;;12.10;99.90;;;;;;5077636;28;20171;-70
2022/08/26 05:50:39;;;;;;;3.77;2.37;;;11.10;99.90;;;;;;5076928;28;20195;-69
2022/08/26 05:53:07;;;;;;;3.70;1.03;;;11.00;99.90;;;;;;5077592;28;20175;-75
2022/08/26 05:55:33;;;;;;;3.73;1.27;;;10.10;99.90;;;;;;5082207;28;20196;-72
2022/08/26 05:57:59;;;;;;;3.87;1.10;;;10.40;99.90;;;;;;5077574;28;20186;-71
2022/08/26 06:00:26;;;;;;;6.93;0.80;;;10.90;99.90;;;;;;5077301;28;20191;-71
2022/08/26 06:02:52;;;;;;;7.40;1.33;;;11.40;99.90;;;;;;5078016;28;20248;-73
2022/08/26 06:05:18;;;;;;;3.60;1.00;;;11.10;99.90;;;;;;5077798;28;20183;-71
2022/08/26 06:10:32;;;;;;;4.27;1.13;;;11.80;99.90;;;;;;5077834;28;20191;-73
2022/08/26 06:12:58;;;;;;;2.87;1.20;;;12.00;99.90;;;;;;5079712;28;20494;-68
2022/08/26 06:15:24;;;;;;;4.57;0.87;;;12.30;99.90;;;;;;5076392;28;20175;-69
2022/08/26 06:17:50;;;;;;;2.63;0.77;;;12.30;99.90;;;;;;5076858;28;20186;-71
2022/08/26 06:20:16;;;;;;;3.37;0.90;;;12.50;99.90;;;;;;5076704;28;20179;-73
2022/08/26 06:25:38;;;;;;;1.77;0.83;;;12.40;99.90;;;;;;5076529;28;20175;-67
2022/08/26 06:28:05;;;;;;;2.93;1.43;;;12.70;99.90;;;;;;5076533;28;20224;-65
2022/08/26 06:30:32;;;;;;;2.33;1.00;;;12.60;99.90;;;;;;5076845;28;20186;-66
2022/08/26 06:32:59;;;;;;;2.87;1.27;;;12.50;99.90;;;;;;5076617;28;20250;-65
2022/08/26 06:35:25;;;;;;;5.97;1.70;;;12.40;99.90;;;;;;5076836;28;20174;-71
2022/08/26 06:37:51;;;;;;;3.03;1.00;;;12.30;99.90;;;;;;5076873;28;20186;-74
2022/08/26 06:40:17;;;;;;;2.60;1.43;;;11.90;99.90;;;;;;5077108;28;20187;-69
2022/08/26 06:42:43;;;;;;;1.93;0.93;;;12.10;99.90;;;;;;5081277;28;20174;-71
2022/08/26 06:45:09;;;;;;;3.40;1.00;;;12.60;99.90;;;;;;5075717;28;20179;-68
2022/08/26 06:47:35;;;;;;;8.63;1.43;;;12.90;99.90;;;;;;5075537;28;20182;-73
2022/08/26 06:50:01;;;;;;;3.40;1.10;;;12.90;99.90;;;;;;5076561;28;20248;-66
2022/08/26 06:52:27;;;;;;;3.63;1.57;;;12.80;99.90;;;;;;5076932;28;20171;-69
2022/08/26 06:54:53;;;;;;;4.90;1.27;;;13.10;99.90;;;;;;5076954;28;20575;-68
2022/08/26 06:57:18;;;;;;;2.50;1.10;;;13.10;99.90;;;;;;5077021;28;20222;-70
2022/08/26 06:59:44;;;;;;;3.73;1.20;;;13.10;99.90;;;;;;5076802;28;20253;-70
2022/08/26 07:02:10;;;;;;;2.77;1.03;;;13.40;99.90;;;;;;5076071;28;20191;-70
2022/08/26 07:04:36;;;;;;;4.33;1.20;;;13.40;99.90;;;;;;5081916;28;20182;-72
2022/08/26 07:07:01;;;;;;;6.10;1.43;;;13.40;99.90;;;;;;5076531;28;20208;-71
2022/08/26 07:09:31;;;;;;;11.13;1.57;;;13.60;99.90;;;;;;5080149;28;20202;-66
2022/08/26 07:11:57;;;;;;;5.20;1.03;;;13.60;99.90;;;;;;5076327;28;20183;-68
2022/08/26 07:14:24;;;;;;;3.33;1.57;;;13.60;99.90;;;;;;5075584;28;20605;-71
2022/08/26 07:16:50;;;;;;;3.70;1.43;;;13.40;99.90;;;;;;5076751;28;20235;-68
2022/08/26 07:19:18;;;;;;;3.03;1.60;;;13.30;99.90;;;;;;5075656;28;20180;-69
2022/08/26 07:21:44;;;;;;;1.73;0.87;;;13.40;99.90;;;;;;5075499;28;20179;-74
2022/08/26 07:24:10;;;;;;;5.17;2.47;;;13.40;99.90;;;;;;5080358;28;20465;-70
2022/08/26 07:26:36;;;;;;;1.47;1.20;;;13.10;99.90;;;;;;5076190;28;20329;-73
2022/08/26 07:29:02;;;;;;;3.10;1.00;;;13.10;99.90;;;;;;5076411;28;20679;-76
2022/08/26 07:31:31;;;;;;;6.87;2.10;;;13.20;99.90;;;;;;5076312;28;20491;-68
2022/08/26 07:33:57;;;;;;;1.00;0.77;;;13.10;99.90;;;;;;5076593;28;20171;-66
2022/08/26 07:36:27;;;;;;;16.73;2.70;;;13.30;99.90;;;;;;5076425;28;20186;-67
2022/08/26 07:38:53;;;;;;;5.60;1.67;;;13.30;99.90;;;;;;5080553;28;20183;-65
2022/08/26 07:41:21;;;;;;;3.97;1.03;;;13.30;99.90;;;;;;5079974;28;20191;-69
2022/08/26 07:43:47;;;;;;;1.90;1.03;;;12.60;99.90;;;;;;5079878;28;20179;-67
2022/08/26 07:46:17;;;;;;;8.23;1.23;;;12.30;99.90;;;;;;5087371;28;20203;-64
2022/08/26 07:48:43;;;;;;;2.73;1.53;;;12.20;99.90;;;;;;5080238;28;20195;-68
2022/08/26 07:51:09;;;;;;;4.87;1.20;;;12.50;99.90;;;;;;5079871;28;20178;-69
2022/08/26 07:53:36;;;;;;;3.97;1.03;;;12.50;99.90;;;;;;5080872;28;20183;-65
2022/08/26 07:56:02;;;;;;;2.77;0.80;;;12.60;99.90;;;;;;5080022;28;20186;-64
2022/08/26 07:58:28;;;;;;;3.83;1.30;;;12.40;99.90;;;;;;5080013;28;20182;-69
2022/08/26 08:00:54;;;;;;;6.83;1.73;;;12.40;99.90;;;;;;5078989;28;20191;-69
2022/08/26 08:03:20;;;;;;;4.97;1.53;;;12.40;99.90;;;;;;5093850;28;20592;-66
2022/08/26 08:05:45;;;;;;;3.73;0.80;;;12.60;99.90;;;;;;5079047;28;20219;-66
2022/08/26 08:08:11;;;;;;;3.63;1.57;;;12.80;99.90;;;;;;5079216;28;20187;-71
2022/08/26 08:10:38;;;;;;;4.00;1.30;;;13.00;99.90;;;;;;5079413;28;20206;-67
2022/08/26 08:13:08;;;;;;;8.30;1.03;;;13.10;99.90;;;;;;5079938;28;20179;-67
2022/08/26 08:15:36;;;;;;;4.77;1.30;;;13.00;99.90;;;;;;5084911;28;20183;-66
2022/08/26 08:18:02;;;;;;;5.10;0.83;;;12.90;99.90;;;;;;5079036;28;20179;-66
2022/08/26 08:20:28;;;;;;;1.93;0.93;;;13.10;99.90;;;;;;5081905;28;20197;-66
2022/08/26 08:22:54;;;;;;;10.63;2.63;;;13.20;99.90;;;;;;5078931;28;20179;-67
2022/08/26 08:25:21;;;;;;;2.30;1.53;;;13.40;99.90;;;;;;5078802;28;20639;-70
2022/08/26 08:27:49;;;;;;;2.53;1.20;;;13.40;99.90;;;;;;5086716;28;20180;-68
2022/08/26 08:30:18;;;;;;;2.30;1.00;;;13.40;99.90;;;;;;5078844;28;20175;-68
2022/08/26 08:32:44;;;;;;;3.70;1.00;;;13.50;99.90;;;;;;5079037;28;20258;-68
2022/08/26 08:35:13;;;;;;;2.43;0.80;;;13.30;99.90;;;;;;5078770;28;20637;-65
2022/08/26 08:37:39;;;;;;;2.00;1.27;;;13.40;99.90;;;;;;5077942;28;20226;-67
2022/08/26 08:40:08;;;;;;;1.57;1.37;;;13.70;99.90;;;;;;5078814;28;20207;-70
2022/08/26 08:42:45;;;;;;;2.77;0.83;;;13.30;99.90;;;;;;5079853;28;20201;-67
2022/08/26 08:45:19;;;;;;;7.23;3.00;;;13.40;99.90;;;;;;5078998;28;20277;-72
2022/08/26 08:47:55;;;;;;;6.30;1.43;;;13.60;99.90;;;;;;5093061;28;20179;-71
2022/08/26 08:50:24;;;;;;;6.27;1.20;;;13.30;99.90;;;;;;5078226;28;20226;-67
2022/08/26 08:53:16;;;;;;;4.43;0.93;;;13.60;99.90;;;;;;5078323;28;20191;-69
2022/08/26 08:55:57;;;;;;;3.93;1.87;;;13.20;99.90;;;;;;5081011;28;20190;-68
2022/08/26 08:58:56;;;;;;;6.70;1.30;;;13.10;99.90;;;;;;5077897;28;20218;-67
2022/08/26 09:01:24;;;;;;;7.33;1.83;;;13.10;99.90;;;;;;5053842;28;20633;-66
2022/08/26 09:04:27;;;;;;;5.93;0.80;;;12.90;99.90;;;;;;5085326;28;20194;-67
2022/08/26 09:06:56;;;;;;;6.13;1.00;;;12.80;99.90;;;;;;5078042;28;20210;-65
2022/08/26 09:09:34;;;;;;;2.00;0.73;;;13.30;99.90;;;;;;5077999;28;20197;-66
2022/08/26 09:12:02;;;;;;;2.33;0.70;;;12.70;99.90;;;;;;5077584;28;20175;-65
2022/08/26 09:14:27;;;;;;;5.43;1.27;;;21.80;99.90;;;;;;5078373;28;20254;-65
2022/08/26 09:17:22;;;;;;;4.00;0.63;;;21.80;99.90;;;;;;5077375;28;20266;-68
2022/08/26 09:19:52;;;;;;;8.30;1.30;;;21.90;99.90;;;;;;5076382;28;20291;-66
2022/08/26 09:22:33;;;;;;;5.07;1.20;;;21.90;99.90;;;;;;5075587;28;20210;-71
2022/08/26 09:25:00;;;;;;;7.50;1.50;;;21.90;99.90;;;;;;5078473;28;20188;-68
2022/08/26 09:27:37;;;;;;;6.07;1.50;;;21.90;99.90;;;;;;5078066;28;20207;-66
2022/08/26 09:30:04;;;;;;;2.07;1.33;;;22.00;99.90;;;;;;5077920;28;20203;-67
2022/08/26 09:32:30;;;;;;;2.60;0.90;;;22.00;99.90;;;;;;5077443;28;20448;-70
2022/08/26 09:35:02;;;;;;;3.13;0.90;;;22.10;99.90;;;;;;5077949;28;20175;-69
2022/08/26 09:37:36;;;;;;;1.50;1.30;;;22.00;99.90;;;;;;5082838;28;20182;-66
2022/08/26 09:40:34;;;;;;;4.87;1.43;;;22.00;99.90;;;;;;5078271;28;20206;-66
2022/08/26 09:43:10;;;;;;;1.00;0.90;;;22.00;99.90;;;;;;5073439;28;20621;-65
2022/08/26 09:45:39;;;;;;;4.23;1.47;;;22.10;99.90;;;;;;5083614;28;20197;-72
2022/08/26 09:48:06;;;;;;;2.83;1.03;;;22.00;99.90;;;;;;5077136;28;20586;-72
2022/08/26 09:50:39;;;;;;;4.13;1.73;;;22.00;99.90;;;;;;5081024;28;20281;-66
2022/08/26 09:53:23;;;;;;;2.87;1.20;;;21.90;99.90;;;;;;5077444;28;20578;-71
2022/08/26 09:56:08;;;;;;;4.23;1.47;;;21.80;99.90;;;;;;5076879;28;20236;-71
2022/08/26 09:58:40;;;;;;;3.33;1.10;;;21.90;99.90;;;;;;5084721;28;20263;-71
2022/08/26 10:01:13;;;;;;;4.83;1.47;;;21.90;99.90;;;;;;5076997;28;20179;-63
2022/08/26 10:03:39;;;;;;;3.67;1.10;;;21.80;99.90;;;;;;5076753;28;20194;-67
2022/08/26 10:06:16;;;;;;;4.57;1.10;;;21.30;99.90;;;;;;5077945;28;20207;-67
2022/08/26 10:08:45;;;;;;;1.17;0.63;;;20.50;99.90;;;;;;5077087;28;20179;-68
2022/08/26 10:11:39;;;;;;;1.73;0.90;;;20.50;99.90;;;;;;5077286;28;20206;-64
2022/08/26 10:14:29;;;;;;;1.97;0.80;;;20.50;99.90;;;;;;5081971;28;20172;-69
2022/08/26 10:17:01;;;;;;;2.17;1.27;;;20.40;99.90;;;;;;5076936;28;20599;-72
2022/08/26 10:19:48;;;;;;;3.60;1.00;;;20.40;99.90;;;;;;5082906;28;20648;-69
2022/08/26 10:23:04;;;;;;;0.60;0.40;;;20.40;99.90;;;;;;5082199;28;20182;-72
2022/08/26 10:26:01;;;;;;;3.40;1.20;;;20.40;99.90;;;;;;5038468;28;20612;-65
2022/08/26 10:28:46;;;;;;;8.37;1.40;;;21.60;99.90;;;;;;5090587;28;20283;-65
2022/08/26 10:31:45;;;;;;;2.70;0.93;;;21.00;99.90;;;;;;5080639;28;20193;-65
2022/08/26 10:34:11;;;;;;;3.37;0.63;;;20.90;99.90;;;;;;5069993;28;20194;-66
2022/08/26 10:36:49;;;;;;;3.97;1.10;;;19.40;99.90;;;;;;5076568;28;20194;-68
2022/08/26 10:39:20;;;;;;;2.33;1.00;;;19.50;99.90;;;;;;5080866;28;20202;-67
2022/08/26 10:41:50;;;;;;;2.27;0.90;;;20.00;99.90;;;;;;5083205;28;20182;-67
2022/08/26 10:44:17;;;;;;;1.80;0.60;;;21.70;99.90;;;;;;5077995;28;20457;-64
2022/08/26 10:47:07;;;;;;;4.00;1.43;;;21.50;99.90;;;;;;5076414;28;20203;-65
2022/08/26 10:49:34;;;;;;;1.70;0.60;;;21.40;99.90;;;;;;5077202;28;20333;-66
2022/08/26 10:52:16;;;;;;;3.33;1.07;;;21.40;99.90;;;;;;5091023;28;20599;-69
2022/08/26 10:55:01;;;;;;;2.10;0.80;;;21.20;99.90;;;;;;5075972;28;20171;-66
2022/08/26 10:57:35;;;;;;;1.57;1.40;;;21.30;99.90;;;;;;5086981;28;20186;-68
2022/08/26 11:03:10;;;;;;;0.97;0.83;;;20.80;99.90;;;;;;5087309;28;20233;-66
2022/08/26 11:05:36;;;;;;;2.23;0.60;;;22.50;99.90;;;;;;5087859;28;20186;-68
2022/08/26 11:08:20;;;;;;;2.60;0.80;;;22.60;99.90;;;;;;5090555;28;20192;-65
2022/08/26 11:10:55;;;;;;;4.73;1.37;;;22.60;99.90;;;;;;5089490;28;20258;-70
2022/08/26 11:13:57;;;;;;;2.83;0.70;;;22.80;99.90;;;;;;5096267;28;20189;-66
2022/08/26 11:16:44;;;;;;;4.23;0.93;;;22.90;99.90;;;;;;5083440;28;20188;-70
2022/08/26 11:19:40;;;;;;;1.53;0.60;;;-40.00;92.00;;;;;;5082111;28;20765;-69
2022/08/26 11:22:38;;;;;;;4.67;1.10;;;-40.00;90.90;;;;;;5087505;28;20190;-69
2022/08/26 11:25:09;;;;;;;1.23;1.03;;;-40.00;91.00;;;;;;5059299;28;20194;-67
2022/08/26 11:27:35;;;;;;;2.07;0.63;;;-40.00;88.30;;;;;;5097258;28;20275;-67
2022/08/26 11:30:07;;;;;;;3.00;1.03;;;-40.00;89.40;;;;;;5095927;28;20183;-70
2022/08/26 11:32:33;;;;;;;0.80;0.60;;;-40.00;89.30;;;;;;5088376;28;20179;-66
2022/08/26 11:35:02;;;;;;;1.60;0.63;;;-40.00;89.70;;;;;;5085939;28;20186;-66
2022/08/26 11:37:36;;;;;;;1.07;0.90;;;-40.00;89.30;;;;;;5088229;28;20179;-66
2022/08/26 11:40:06;;;;;;;1.53;0.60;;;-40.00;88.20;;;;;;5082956;28;20182;-69
2022/08/26 11:42:35;;;;;;;1.57;0.70;;;-40.00;88.80;;;;;;5089067;28;20229;-70
2022/08/26 11:45:13;;;;;;;1.00;0.70;;;-40.00;88.10;;;;;;5083444;28;20187;-71
2022/08/26 11:47:38;;;;;;;4.10;1.20;;;-40.00;84.20;;;;;;5087961;28;21085;-71
2022/08/26 11:50:10;;;;;;;1.40;0.90;;;-40.00;84.80;;;;;;5088600;28;20195;-69
2022/08/26 11:52:36;;;;;;;4.37;1.00;;;-40.00;83.10;;;;;;5091415;28;20170;-71
2022/08/26 11:55:03;;;;;;;0.93;0.60;;;-40.00;82.60;;;;;;5081010;28;20183;-69
2022/08/26 11:57:33;;;;;;;2.07;0.83;;;-40.00;81.30;;;;;;5083093;28;20187;-73
2022/08/26 12:00:00;;;;;;;5.50;1.27;;;-40.00;83.30;;;;;;5082113;28;20245;-70
2022/08/26 12:02:26;;;;;;;2.90;1.23;;;-40.00;82.10;;;;;;5081662;28;20182;-70
2022/08/26 12:04:55;;;;;;;2.83;1.00;;;-40.00;81.50;;;;;;5082409;28;20187;-67
2022/08/26 12:07:24;;;;;;;3.60;0.90;;;-40.00;80.80;;;;;;5082765;28;20199;-68
2022/08/26 12:10:00;;;;;;;0.70;0.70;;;-40.00;82.30;;;;;;5082246;28;20205;-66
2022/08/26 12:12:29;;;;;;;0.97;0.80;;;-40.00;83.60;;;;;;5081467;28;20175;-67
2022/08/26 12:15:10;;;;;;;3.80;0.90;;;-40.00;83.50;;;;;;5082867;28;20194;-67
2022/08/26 12:17:38;;;;;;;3.40;1.17;;;-40.00;82.30;;;;;;5082760;28;20239;-68
2022/08/26 12:20:05;;;;;;;3.87;1.67;;;-40.00;81.70;;;;;;5082764;28;20179;-68
2022/08/26 12:22:34;;;;;;;2.57;0.70;;;-40.00;79.20;;;;;;5082963;28;20186;-68
2022/08/26 12:25:08;;;;;;;0.63;0.50;;;-40.00;80.60;;;;;;5077984;28;20219;-67
2022/08/26 12:27:39;;;;;;;5.70;2.30;;;-40.00;77.10;;;;;;5079518;28;20203;-67
2022/08/26 12:30:15;;;;;;;0.93;0.80;;;-40.00;75.50;;;;;;5078680;28;20183;-69
2022/08/26 12:32:44;;;;;;;1.50;1.03;;;-40.00;75.30;;;;;;5079134;28;20183;-68
2022/08/26 12:35:13;;;;;;;5.20;1.00;;;-40.00;73.60;;;;;;5092672;28;20503;-66
2022/08/26 12:37:41;;;;;;;1.10;0.80;;;-40.00;72.90;;;;;;5080009;28;20482;-67
2022/08/26 12:40:32;;;;;;;1.17;1.10;;;-40.00;73.40;;;;;;5079722;28;20206;-66
2022/08/26 12:43:00;;;;;;;1.33;1.23;;;-40.00;73.80;;;;;;5079611;28;20199;-67
2022/08/26 12:45:40;;;;;;;1.30;1.20;;;-40.00;70.60;;;;;;5082951;28;20655;-67
2022/08/26 12:48:12;;;;;;;6.23;1.60;;;-40.00;69.50;;;;;;5085745;28;20179;-66
2022/08/26 12:50:49;;;;;;;1.40;1.23;;;-40.00;71.50;;;;;;5077905;28;20254;-67
2022/08/26 12:53:27;;;;;;;2.83;1.83;;;-40.00;71.50;;;;;;5078642;28;20260;-69
2022/08/26 12:56:00;;;;;;;2.00;1.60;;;-40.00;70.60;;;;;;5080033;28;20201;-68
2022/08/26 12:58:30;;;;;;;1.87;1.63;;;-40.00;72.30;;;;;;5082661;28;20183;-70
2022/08/26 13:01:05;;;;;;;4.27;1.67;;;-40.00;76.60;;;;;;5077610;28;20655;-68
2022/08/26 13:03:34;;;;;;;2.07;1.90;;;-40.00;68.30;;;;;;5078518;28;20197;-69
2022/08/26 13:06:20;;;;;;;2.00;1.53;;;-40.00;68.50;;;;;;5078319;28;20217;-68
2022/08/26 13:08:54;;;;;;;2.00;1.07;;;-40.00;66.10;;;;;;5079112;28;20266;-68
2022/08/26 13:11:28;;;;;;;4.87;1.30;;;-40.00;61.20;;;;;;5082970;28;20191;-71
2022/08/26 13:14:02;;;;;;;7.67;2.60;;;-40.00;63.70;;;;;;5083057;28;20191;-69